sensor_id;sensor_type;location;lat;lon;timestamp;temperature;humidity
3954;DHT22;1991;48.682;9.030;2023-03-01T00:00:46;-2.00;99.90
3954;DHT22;1991;48.682;9.030;2023-03-01T00:03:12;-2.00;99.90
3954;DHT22;1991;48.682;9.030;2023-03-01T00:05:46;-2.00;99.90
3954;DHT22;1991;48.682;9.030;2023-03-01T00:08:12;-2.00;99.90
3954;DHT22;1991;48.682;9.030;2023-03-01T00:10:38;-2.10;99.90
3954;DHT22;1991;48.682;9.030;2023-03-01T00:13:04;-2.10;99.90
3954;DHT22;1991;48.682;9.030;2023-03-01T00:15:31;-2.10;99.90
3954;DHT22;1991;48.682;9.030;2023-03-01T00:17:57;-2.20;99.90
3954;DHT22;1991;48.682;9.030;2023-03-01T00:20:22;-2.20;99.90
3954;DHT22;1991;48.682;9.030;2023-03-01T00:22:48;-2.20;99.90
3954;DHT22;1991;48.682;9.030;2023-03-01T00:25:14;-2.20;99.90
3954;DHT22;1991;48.682;9.030;2023-03-01T00:27:39;-2.20;99.90
3954;DHT22;1991;48.682;9.030;2023-03-01T00:30:05;-2.30;99.90
3954;DHT22;1991;48.682;9.030;2023-03-01T00:32:31;-2.30;99.90
3954;DHT22;1991;48.682;9.030;2023-03-01T00:34:56;-2.40;99.90
3954;DHT22;1991;48.682;9.030;2023-03-01T00:37:23;-2.40;99.90
3954;DHT22;1991;48.682;9.030;2023-03-01T00:39:49;-2.40;99.90
3954;DHT22;1991;48.682;9.030;2023-03-01T00:42:15;-2.40;99.90
3954;DHT22;1991;48.682;9.030;2023-03-01T00:44:40;-2.40;99.90
3954;DHT22;1991;48.682;9.030;2023-03-01T00:47:06;-2.50;99.90
3954;DHT22;1991;48.682;9.030;2023-03-01T00:49:31;-2.50;99.90
3954;DHT22;1991;48.682;9.030;2023-03-01T00:51:57;-2.50;99.90
3954;DHT22;1991;48.682;9.030;2023-03-01T00:54:23;-2.50;99.90
3954;DHT22;1991;48.682;9.030;2023-03-01T00:56:48;-2.50;99.90
3954;DHT22;1991;48.682;9.030;2023-03-01T00:59:14;-2.60;99.90
3954;DHT22;1991;48.682;9.030;2023-03-01T01:01:40;-2.50;99.90
3954;DHT22;1991;48.682;9.030;2023-03-01T01:04:08;-2.50;99.90
3954;DHT22;1991;48.682;9.030;2023-03-01T01:06:41;-2.50;99.90
3954;DHT22;1991;48.682;9.030;2023-03-01T01:09:12;-2.50;99.90
3954;DHT22;1991;48.682;9.030;2023-03-01T01:11:49;-2.50;99.90
3954;DHT22;1991;48.682;9.030;2023-03-01T01:14:15;-2.50;99.90
3954;DHT22;1991;48.682;9.030;2023-03-01T01:16:41;-2.60;99.90
3954;DHT22;1991;48.682;9.030;2023-03-01T01:19:06;-2.50;99.90
3954;DHT22;1991;48.682;9.030;2023-03-01T01:21:32;-2.60;99.90
3954;DHT22;1991;48.682;9.030;2023-03-01T01:23:58;-2.60;99.90
3954;DHT22;1991;48.682;9.030;2023-03-01T01:26:29;-2.60;99.90
3954;DHT22;1991;48.682;9.030;2023-03-01T01:28:56;-2.60;99.90
3954;DHT22;1991;48.682;9.030;2023-03-01T01:31:23;-2.60;99.90
3954;DHT22;1991;48.682;9.030;2023-03-01T01:33:50;-2.50;99.90
3954;DHT22;1991;48.682;9.030;2023-03-01T01:36:16;-2.60;99.90
3954;DHT22;1991;48.682;9.030;2023-03-01T01:38:42;-2.60;99.90
3954;DHT22;1991;48.682;9.030;2023-03-01T01:41:11;-2.60;99.90
3954;DHT22;1991;48.682;9.030;2023-03-01T01:43:48;-2.50;99.90
3954;DHT22;1991;48.682;9.030;2023-03-01T01:46:45;-2.50;99.90
3954;DHT22;1991;48.682;9.030;2023-03-01T01:51:53;-2.60;99.90
3954;DHT22;1991;48.682;9.030;2023-03-01T01:54:34;-2.50;99.90
3954;DHT22;1991;48.682;9.030;2023-03-01T01:57:07;-2.60;99.90
3954;DHT22;1991;48.682;9.030;2023-03-01T01:59:34;-2.60;99.90
3954;DHT22;1991;48.682;9.030;2023-03-01T02:02:02;-2.60;99.90
3954;DHT22;1991;48.682;9.030;2023-03-01T02:04:30;-2.60;99.90
3954;DHT22;1991;48.682;9.030;2023-03-01T02:07:16;-2.60;99.90
3954;DHT22;1991;48.682;9.030;2023-03-01T02:09:46;-2.60;99.90
3954;DHT22;1991;48.682;9.030;2023-03-01T02:12:14;-2.60;99.90
3954;DHT22;1991;48.682;9.030;2023-03-01T02:14:40;-2.50;99.90
3954;DHT22;1991;48.682;9.030;2023-03-01T02:17:06;-2.30;99.90
3954;DHT22;1991;48.682;9.030;2023-03-01T02:20:03;-2.10;99.90
3954;DHT22;1991;48.682;9.030;2023-03-01T02:22:33;-1.90;99.90
3954;DHT22;1991;48.682;9.030;2023-03-01T02:30:42;-1.50;99.90
3954;DHT22;1991;48.682;9.030;2023-03-01T02:33:29;-1.50;99.90
3954;DHT22;1991;48.682;9.030;2023-03-01T02:35:59;-1.40;99.90
3954;DHT22;1991;48.682;9.030;2023-03-01T02:38:26;-1.30;99.90
3954;DHT22;1991;48.682;9.030;2023-03-01T02:40:52;-1.20;99.90
3954;DHT22;1991;48.682;9.030;2023-03-01T02:43:21;-1.20;99.90
3954;DHT22;1991;48.682;9.030;2023-03-01T02:45:50;-1.20;99.90
3954;DHT22;1991;48.682;9.030;2023-03-01T02:48:16;-1.10;99.90
3954;DHT22;1991;48.682;9.030;2023-03-01T02:54:33;-1.00;99.90
3954;DHT22;1991;48.682;9.030;2023-03-01T02:56:34;-1.00;99.90
3954;DHT22;1991;48.682;9.030;2023-03-01T02:59:00;-1.00;99.90
3954;DHT22;1991;48.682;9.030;2023-03-01T03:01:26;-1.00;99.90
3954;DHT22;1991;48.682;9.030;2023-03-01T03:04:05;-0.90;99.90
3954;DHT22;1991;48.682;9.030;2023-03-01T03:06:31;-0.90;99.90
3954;DHT22;1991;48.682;9.030;2023-03-01T03:08:56;-0.90;99.90
3954;DHT22;1991;48.682;9.030;2023-03-01T03:11:22;-0.90;99.90
3954;DHT22;1991;48.682;9.030;2023-03-01T03:13:48;-0.80;99.90
3954;DHT22;1991;48.682;9.030;2023-03-01T03:16:14;-0.80;99.90
3954;DHT22;1991;48.682;9.030;2023-03-01T03:18:40;-0.80;99.90
3954;DHT22;1991;48.682;9.030;2023-03-01T03:21:11;-0.70;99.90
3954;DHT22;1991;48.682;9.030;2023-03-01T03:23:37;-0.70;99.90
3954;DHT22;1991;48.682;9.030;2023-03-01T03:26:03;-0.70;99.90
3954;DHT22;1991;48.682;9.030;2023-03-01T03:28:33;-0.70;99.90
3954;DHT22;1991;48.682;9.030;2023-03-01T03:30:59;-0.70;99.90
3954;DHT22;1991;48.682;9.030;2023-03-01T03:33:32;-0.60;99.90
3954;DHT22;1991;48.682;9.030;2023-03-01T03:35:57;-0.60;99.90
3954;DHT22;1991;48.682;9.030;2023-03-01T03:38:23;-0.80;99.90
3954;DHT22;1991;48.682;9.030;2023-03-01T03:40:52;-0.80;99.90
3954;DHT22;1991;48.682;9.030;2023-03-01T03:43:22;-0.70;99.90
3954;DHT22;1991;48.682;9.030;2023-03-01T03:45:49;-0.70;99.90
3954;DHT22;1991;48.682;9.030;2023-03-01T03:48:16;-0.60;99.90
3954;DHT22;1991;48.682;9.030;2023-03-01T03:50:41;-0.60;99.90
3954;DHT22;1991;48.682;9.030;2023-03-01T03:53:11;-0.70;99.90
3954;DHT22;1991;48.682;9.030;2023-03-01T03:55:37;-0.60;99.90
3954;DHT22;1991;48.682;9.030;2023-03-01T03:58:08;-0.60;99.90
3954;DHT22;1991;48.682;9.030;2023-03-01T04:00:40;-0.60;99.90
3954;DHT22;1991;48.682;9.030;2023-03-01T04:03:06;-0.60;99.90
3954;DHT22;1991;48.682;9.030;2023-03-01T04:05:32;-0.60;99.90
3954;DHT22;1991;48.682;9.030;2023-03-01T04:07:58;-0.60;99.90
3954;DHT22;1991;48.682;9.030;2023-03-01T04:10:28;-0.60;99.90
3954;DHT22;1991;48.682;9.030;2023-03-01T04:12:54;-0.60;99.90
3954;DHT22;1991;48.682;9.030;2023-03-01T04:15:23;-0.60;99.90
3954;DHT22;1991;48.682;9.030;2023-03-01T04:17:51;-0.60;99.90
3954;DHT22;1991;48.682;9.030;2023-03-01T04:20:20;-0.60;99.90
3954;DHT22;1991;48.682;9.030;2023-03-01T04:23:06;-0.60;99.90
3954;DHT22;1991;48.682;9.030;2023-03-01T04:25:45;-0.50;99.90
3954;DHT22;1991;48.682;9.030;2023-03-01T04:28:11;-0.60;99.90
3954;DHT22;1991;48.682;9.030;2023-03-01T04:30:38;-0.50;99.90
3954;DHT22;1991;48.682;9.030;2023-03-01T04:33:09;-0.60;99.90
3954;DHT22;1991;48.682;9.030;2023-03-01T04:35:36;-0.60;99.90
3954;DHT22;1991;48.682;9.030;2023-03-01T04:38:02;-0.60;99.90
3954;DHT22;1991;48.682;9.030;2023-03-01T04:40:28;-0.60;99.90
3954;DHT22;1991;48.682;9.030;2023-03-01T04:42:53;-0.60;99.90
3954;DHT22;1991;48.682;9.030;2023-03-01T04:45:19;-0.50;99.90
3954;DHT22;1991;48.682;9.030;2023-03-01T04:47:46;-0.50;99.90
3954;DHT22;1991;48.682;9.030;2023-03-01T04:50:16;-0.50;99.90
3954;DHT22;1991;48.682;9.030;2023-03-01T04:52:43;-0.50;99.90
3954;DHT22;1991;48.682;9.030;2023-03-01T04:55:09;-0.40;99.90
3954;DHT22;1991;48.682;9.030;2023-03-01T04:57:35;-0.40;99.90
3954;DHT22;1991;48.682;9.030;2023-03-01T05:00:01;-0.50;99.90
3954;DHT22;1991;48.682;9.030;2023-03-01T05:02:28;-0.40;99.90
3954;DHT22;1991;48.682;9.030;2023-03-01T05:04:54;-0.40;99.90
3954;DHT22;1991;48.682;9.030;2023-03-01T05:07:22;-0.40;99.90
3954;DHT22;1991;48.682;9.030;2023-03-01T05:09:50;-0.40;99.90
3954;DHT22;1991;48.682;9.030;2023-03-01T05:12:15;-0.30;99.90
3954;DHT22;1991;48.682;9.030;2023-03-01T05:14:41;-0.40;99.90
3954;DHT22;1991;48.682;9.030;2023-03-01T05:17:07;-0.30;99.90
3954;DHT22;1991;48.682;9.030;2023-03-01T05:19:34;-0.30;99.90
3954;DHT22;1991;48.682;9.030;2023-03-01T05:22:00;-0.30;99.90
3954;DHT22;1991;48.682;9.030;2023-03-01T05:24:33;-0.30;99.90
3954;DHT22;1991;48.682;9.030;2023-03-01T05:26:59;-0.30;99.90
3954;DHT22;1991;48.682;9.030;2023-03-01T05:29:26;-0.30;99.90
3954;DHT22;1991;48.682;9.030;2023-03-01T05:31:53;-0.20;99.90
3954;DHT22;1991;48.682;9.030;2023-03-01T05:36:52;-0.20;99.90
3954;DHT22;1991;48.682;9.030;2023-03-01T05:39:20;-0.20;99.90
3954;DHT22;1991;48.682;9.030;2023-03-01T05:41:46;-0.30;99.90
3954;DHT22;1991;48.682;9.030;2023-03-01T05:44:13;-0.20;99.90
3954;DHT22;1991;48.682;9.030;2023-03-01T05:46:38;-0.20;99.90
3954;DHT22;1991;48.682;9.030;2023-03-01T05:49:04;-0.20;99.90
3954;DHT22;1991;48.682;9.030;2023-03-01T05:51:30;-0.20;99.90
3954;DHT22;1991;48.682;9.030;2023-03-01T05:53:56;-0.20;99.90
3954;DHT22;1991;48.682;9.030;2023-03-01T05:56:21;-0.20;99.90
3954;DHT22;1991;48.682;9.030;2023-03-01T05:58:48;-0.20;99.90
3954;DHT22;1991;48.682;9.030;2023-03-01T06:01:15;-0.20;99.90
3954;DHT22;1991;48.682;9.030;2023-03-01T06:03:40;-0.10;99.90
3954;DHT22;1991;48.682;9.030;2023-03-01T06:06:06;-0.10;99.90
3954;DHT22;1991;48.682;9.030;2023-03-01T06:08:31;-0.10;99.90
3954;DHT22;1991;48.682;9.030;2023-03-01T06:10:57;-0.10;99.90
3954;DHT22;1991;48.682;9.030;2023-03-01T06:13:23;-0.10;99.90
3954;DHT22;1991;48.682;9.030;2023-03-01T06:15:49;-0.10;99.90
3954;DHT22;1991;48.682;9.030;2023-03-01T06:18:15;0.00;99.90
3954;DHT22;1991;48.682;9.030;2023-03-01T06:20:41;0.00;99.90
3954;DHT22;1991;48.682;9.030;2023-03-01T06:23:06;0.10;99.90
3954;DHT22;1991;48.682;9.030;2023-03-01T06:25:32;0.10;99.90
3954;DHT22;1991;48.682;9.030;2023-03-01T06:27:57;0.10;99.90
3954;DHT22;1991;48.682;9.030;2023-03-01T06:30:25;0.10;99.90
3954;DHT22;1991;48.682;9.030;2023-03-01T06:32:51;0.10;99.90
3954;DHT22;1991;48.682;9.030;2023-03-01T06:35:17;0.10;99.90
3954;DHT22;1991;48.682;9.030;2023-03-01T06:37:44;0.10;99.90
3954;DHT22;1991;48.682;9.030;2023-03-01T06:40:11;0.20;99.90
3954;DHT22;1991;48.682;9.030;2023-03-01T06:42:38;0.20;99.90
3954;DHT22;1991;48.682;9.030;2023-03-01T06:45:05;0.30;99.90
3954;DHT22;1991;48.682;9.030;2023-03-01T06:47:32;0.40;99.90
3954;DHT22;1991;48.682;9.030;2023-03-01T06:49:58;0.40;99.90
3954;DHT22;1991;48.682;9.030;2023-03-01T06:52:24;0.50;99.90
3954;DHT22;1991;48.682;9.030;2023-03-01T06:54:50;0.60;99.90
3954;DHT22;1991;48.682;9.030;2023-03-01T06:57:15;0.60;99.90
3954;DHT22;1991;48.682;9.030;2023-03-01T06:59:41;0.70;99.90
3954;DHT22;1991;48.682;9.030;2023-03-01T07:02:12;0.90;99.90
3954;DHT22;1991;48.682;9.030;2023-03-01T07:04:38;1.00;99.90
3954;DHT22;1991;48.682;9.030;2023-03-01T07:07:04;1.00;99.90
3954;DHT22;1991;48.682;9.030;2023-03-01T07:09:30;0.90;99.90
3954;DHT22;1991;48.682;9.030;2023-03-01T07:11:56;1.00;99.90
3954;DHT22;1991;48.682;9.030;2023-03-01T07:14:22;1.00;99.90
3954;DHT22;1991;48.682;9.030;2023-03-01T07:16:49;1.10;99.90
3954;DHT22;1991;48.682;9.030;2023-03-01T07:19:15;1.10;99.90
3954;DHT22;1991;48.682;9.030;2023-03-01T07:21:40;1.20;99.90
3954;DHT22;1991;48.682;9.030;2023-03-01T07:24:07;1.20;99.90
3954;DHT22;1991;48.682;9.030;2023-03-01T07:26:33;1.20;99.90
3954;DHT22;1991;48.682;9.030;2023-03-01T07:28:59;1.30;99.90
3954;DHT22;1991;48.682;9.030;2023-03-01T07:31:25;1.40;99.90
3954;DHT22;1991;48.682;9.030;2023-03-01T07:33:53;1.50;99.60
3954;DHT22;1991;48.682;9.030;2023-03-01T07:36:19;1.60;99.50
3954;DHT22;1991;48.682;9.030;2023-03-01T07:38:44;1.70;98.90
3954;DHT22;1991;48.682;9.030;2023-03-01T07:41:10;1.80;98.50
3954;DHT22;1991;48.682;9.030;2023-03-01T07:43:35;2.00;97.90
3954;DHT22;1991;48.682;9.030;2023-03-01T07:46:02;2.00;97.70
3954;DHT22;1991;48.682;9.030;2023-03-01T07:48:28;2.10;97.50
3954;DHT22;1991;48.682;9.030;2023-03-01T07:50:57;2.30;96.60
3954;DHT22;1991;48.682;9.030;2023-03-01T07:53:23;2.40;96.00
3954;DHT22;1991;48.682;9.030;2023-03-01T07:55:48;2.60;95.50
3954;DHT22;1991;48.682;9.030;2023-03-01T07:58:14;2.80;94.90
3954;DHT22;1991;48.682;9.030;2023-03-01T08:00:39;2.80;94.50
3954;DHT22;1991;48.682;9.030;2023-03-01T08:03:05;3.00;93.70
3954;DHT22;1991;48.682;9.030;2023-03-01T08:05:30;3.10;93.30
3954;DHT22;1991;48.682;9.030;2023-03-01T08:07:56;3.40;92.30
3954;DHT22;1991;48.682;9.030;2023-03-01T08:10:21;3.40;91.80
3954;DHT22;1991;48.682;9.030;2023-03-01T08:12:47;3.50;91.30
3954;DHT22;1991;48.682;9.030;2023-03-01T08:15:12;3.70;90.60
3954;DHT22;1991;48.682;9.030;2023-03-01T08:17:38;4.00;90.00
3954;DHT22;1991;48.682;9.030;2023-03-01T08:20:04;4.20;88.60
3954;DHT22;1991;48.682;9.030;2023-03-01T08:22:32;4.40;85.90
3954;DHT22;1991;48.682;9.030;2023-03-01T08:24:58;4.50;84.30
3954;DHT22;1991;48.682;9.030;2023-03-01T08:27:23;4.40;83.80
3954;DHT22;1991;48.682;9.030;2023-03-01T08:29:49;4.50;84.60
3954;DHT22;1991;48.682;9.030;2023-03-01T08:32:14;4.70;82.40
3954;DHT22;1991;48.682;9.030;2023-03-01T08:34:40;5.00;80.70
3954;DHT22;1991;48.682;9.030;2023-03-01T08:37:05;5.20;79.70
3954;DHT22;1991;48.682;9.030;2023-03-01T08:39:31;5.40;79.00
3954;DHT22;1991;48.682;9.030;2023-03-01T08:41:56;5.60;77.70
3954;DHT22;1991;48.682;9.030;2023-03-01T08:44:22;5.80;75.40
3954;DHT22;1991;48.682;9.030;2023-03-01T08:46:48;6.10;73.60
3954;DHT22;1991;48.682;9.030;2023-03-01T08:49:17;6.30;72.00
3954;DHT22;1991;48.682;9.030;2023-03-01T08:51:44;6.50;71.00
3954;DHT22;1991;48.682;9.030;2023-03-01T08:54:12;6.60;69.40
3954;DHT22;1991;48.682;9.030;2023-03-01T08:56:40;6.90;68.40
3954;DHT22;1991;48.682;9.030;2023-03-01T08:59:06;7.20;67.70
3954;DHT22;1991;48.682;9.030;2023-03-01T09:01:32;7.60;65.80
3954;DHT22;1991;48.682;9.030;2023-03-01T09:03:57;7.60;63.50
3954;DHT22;1991;48.682;9.030;2023-03-01T09:06:23;8.10;64.20
3954;DHT22;1991;48.682;9.030;2023-03-01T09:08:49;8.80;61.00
3954;DHT22;1991;48.682;9.030;2023-03-01T09:11:18;12.00;57.20
3954;DHT22;1991;48.682;9.030;2023-03-01T09:13:45;15.30;49.10
3954;DHT22;1991;48.682;9.030;2023-03-01T09:16:13;16.70;42.80
3954;DHT22;1991;48.682;9.030;2023-03-01T09:18:39;19.60;37.80
3954;DHT22;1991;48.682;9.030;2023-03-01T09:21:06;21.50;34.40
3954;DHT22;1991;48.682;9.030;2023-03-01T09:23:34;23.60;31.70
3954;DHT22;1991;48.682;9.030;2023-03-01T09:26:00;24.70;29.50
3954;DHT22;1991;48.682;9.030;2023-03-01T09:28:26;26.50;28.50
3954;DHT22;1991;48.682;9.030;2023-03-01T09:30:51;26.30;27.30
3954;DHT22;1991;48.682;9.030;2023-03-01T09:33:17;26.50;27.20
3954;DHT22;1991;48.682;9.030;2023-03-01T09:35:42;26.80;26.80
3954;DHT22;1991;48.682;9.030;2023-03-01T09:38:12;27.50;26.60
3954;DHT22;1991;48.682;9.030;2023-03-01T09:40:43;27.60;26.20
3954;DHT22;1991;48.682;9.030;2023-03-01T09:43:41;27.10;25.50
3954;DHT22;1991;48.682;9.030;2023-03-01T09:46:10;29.00;25.50
3954;DHT22;1991;48.682;9.030;2023-03-01T09:49:05;29.80;24.90
3954;DHT22;1991;48.682;9.030;2023-03-01T09:51:35;29.20;25.00
3954;DHT22;1991;48.682;9.030;2023-03-01T09:54:05;30.10;24.60
3954;DHT22;1991;48.682;9.030;2023-03-01T09:56:56;31.10;24.10
3954;DHT22;1991;48.682;9.030;2023-03-01T09:59:26;32.30;24.40
3954;DHT22;1991;48.682;9.030;2023-03-01T10:01:59;33.00;23.40
3954;DHT22;1991;48.682;9.030;2023-03-01T10:04:47;32.60;23.00
3954;DHT22;1991;48.682;9.030;2023-03-01T10:07:45;33.20;23.10
3954;DHT22;1991;48.682;9.030;2023-03-01T10:10:31;32.70;22.70
3954;DHT22;1991;48.682;9.030;2023-03-01T10:12:57;33.10;22.60
3954;DHT22;1991;48.682;9.030;2023-03-01T10:15:38;33.50;23.20
3954;DHT22;1991;48.682;9.030;2023-03-01T10:18:19;31.70;23.00
3954;DHT22;1991;48.682;9.030;2023-03-01T10:20:52;32.70;22.60
3954;DHT22;1991;48.682;9.030;2023-03-01T10:23:18;32.90;22.50
3954;DHT22;1991;48.682;9.030;2023-03-01T10:31:14;35.30;22.10
3954;DHT22;1991;48.682;9.030;2023-03-01T10:33:41;35.80;22.00
3954;DHT22;1991;48.682;9.030;2023-03-01T10:36:07;35.90;21.80
3954;DHT22;1991;48.682;9.030;2023-03-01T10:38:48;34.90;21.90
3954;DHT22;1991;48.682;9.030;2023-03-01T10:41:14;35.10;21.90
3954;DHT22;1991;48.682;9.030;2023-03-01T10:43:48;35.80;22.00
3954;DHT22;1991;48.682;9.030;2023-03-01T10:46:28;37.10;21.50
3954;DHT22;1991;48.682;9.030;2023-03-01T10:51:40;38.30;21.20
3954;DHT22;1991;48.682;9.030;2023-03-01T10:54:25;38.90;21.20
3954;DHT22;1991;48.682;9.030;2023-03-01T10:56:55;38.90;20.90
3954;DHT22;1991;48.682;9.030;2023-03-01T10:59:32;39.40;21.00
3954;DHT22;1991;48.682;9.030;2023-03-01T11:02:22;39.70;20.80
3954;DHT22;1991;48.682;9.030;2023-03-01T11:05:22;38.60;20.90
3954;DHT22;1991;48.682;9.030;2023-03-01T11:07:54;38.90;20.80
3954;DHT22;1991;48.682;9.030;2023-03-01T11:10:32;37.90;20.90
3954;DHT22;1991;48.682;9.030;2023-03-01T11:13:15;38.00;21.00
3954;DHT22;1991;48.682;9.030;2023-03-01T11:15:41;38.10;20.90
3954;DHT22;1991;48.682;9.030;2023-03-01T11:18:20;38.10;21.00
3954;DHT22;1991;48.682;9.030;2023-03-01T11:20:46;39.00;21.00
3954;DHT22;1991;48.682;9.030;2023-03-01T11:23:14;38.50;21.50
3954;DHT22;1991;48.682;9.030;2023-03-01T11:25:51;39.80;20.80
3954;DHT22;1991;48.682;9.030;2023-03-01T11:28:19;39.30;20.60
3954;DHT22;1991;48.682;9.030;2023-03-01T11:36:28;39.00;20.60
3954;DHT22;1991;48.682;9.030;2023-03-01T11:38:55;40.20;20.70
3954;DHT22;1991;48.682;9.030;2023-03-01T11:41:27;39.50;20.40
3954;DHT22;1991;48.682;9.030;2023-03-01T11:44:02;39.80;20.50
3954;DHT22;1991;48.682;9.030;2023-03-01T11:49:24;39.20;20.60
3954;DHT22;1991;48.682;9.030;2023-03-01T11:52:11;40.00;21.20
3954;DHT22;1991;48.682;9.030;2023-03-01T12:00:56;41.00;20.90
3954;DHT22;1991;48.682;9.030;2023-03-01T12:17:20;39.30;20.40
3954;DHT22;1991;48.682;9.030;2023-03-01T12:20:02;40.10;20.60
3954;DHT22;1991;48.682;9.030;2023-03-01T12:25:37;41.20;20.40
3954;DHT22;1991;48.682;9.030;2023-03-01T12:46:47;40.70;20.60
3954;DHT22;1991;48.682;9.030;2023-03-01T12:49:23;41.00;20.20
3954;DHT22;1991;48.682;9.030;2023-03-01T12:52:16;41.10;20.30
3954;DHT22;1991;48.682;9.030;2023-03-01T12:54:40;40.70;20.40
3954;DHT22;1991;48.682;9.030;2023-03-01T12:57:33;41.30;20.40
3954;DHT22;1991;48.682;9.030;2023-03-01T13:03:00;40.70;20.40
3954;DHT22;1991;48.682;9.030;2023-03-01T13:05:40;38.90;20.30
3954;DHT22;1991;48.682;9.030;2023-03-01T13:08:20;38.60;20.50
3954;DHT22;1991;48.682;9.030;2023-03-01T13:10:58;38.40;20.50
3954;DHT22;1991;48.682;9.030;2023-03-01T13:13:26;38.30;20.50
3954;DHT22;1991;48.682;9.030;2023-03-01T13:15:53;37.90;20.90
3954;DHT22;1991;48.682;9.030;2023-03-01T13:20:54;38.90;20.60
3954;DHT22;1991;48.682;9.030;2023-03-01T13:31:08;38.60;20.40
3954;DHT22;1991;48.682;9.030;2023-03-01T13:33:50;38.30;20.50
3954;DHT22;1991;48.682;9.030;2023-03-01T13:46:53;36.60;21.00
3954;DHT22;1991;48.682;9.030;2023-03-01T13:49:25;36.40;21.00
3954;DHT22;1991;48.682;9.030;2023-03-01T13:51:52;36.50;21.00
3954;DHT22;1991;48.682;9.030;2023-03-01T13:54:31;37.40;21.20
3954;DHT22;1991;48.682;9.030;2023-03-01T13:56:58;35.70;21.20
3954;DHT22;1991;48.682;9.030;2023-03-01T13:59:24;36.00;21.80
3954;DHT22;1991;48.682;9.030;2023-03-01T14:01:57;34.10;21.70
3954;DHT22;1991;48.682;9.030;2023-03-01T14:04:26;33.70;22.30
3954;DHT22;1991;48.682;9.030;2023-03-01T14:07:08;33.90;22.70
3954;DHT22;1991;48.682;9.030;2023-03-01T14:09:37;33.40;22.20
3954;DHT22;1991;48.682;9.030;2023-03-01T14:12:44;32.90;22.40
3954;DHT22;1991;48.682;9.030;2023-03-01T14:15:36;31.90;22.90
3954;DHT22;1991;48.682;9.030;2023-03-01T14:18:29;31.30;22.40
3954;DHT22;1991;48.682;9.030;2023-03-01T14:20:58;30.30;22.60
3954;DHT22;1991;48.682;9.030;2023-03-01T14:23:24;29.80;22.90
3954;DHT22;1991;48.682;9.030;2023-03-01T14:25:55;28.40;23.30
3954;DHT22;1991;48.682;9.030;2023-03-01T14:28:24;27.70;23.70
3954;DHT22;1991;48.682;9.030;2023-03-01T14:30:54;27.70;23.70
3954;DHT22;1991;48.682;9.030;2023-03-01T14:33:29;27.80;23.80
3954;DHT22;1991;48.682;9.030;2023-03-01T14:36:10;27.90;23.30
3954;DHT22;1991;48.682;9.030;2023-03-01T14:38:43;28.20;23.70
3954;DHT22;1991;48.682;9.030;2023-03-01T14:41:15;27.80;23.90
3954;DHT22;1991;48.682;9.030;2023-03-01T14:43:44;27.60;23.80
3954;DHT22;1991;48.682;9.030;2023-03-01T14:46:39;25.30;24.50
3954;DHT22;1991;48.682;9.030;2023-03-01T14:49:07;23.50;26.20
3954;DHT22;1991;48.682;9.030;2023-03-01T14:51:40;23.40;26.40
3954;DHT22;1991;48.682;9.030;2023-03-01T14:54:28;24.00;25.90
3954;DHT22;1991;48.682;9.030;2023-03-01T14:56:59;23.60;26.20
3954;DHT22;1991;48.682;9.030;2023-03-01T14:59:25;23.00;26.90
3954;DHT22;1991;48.682;9.030;2023-03-01T15:01:54;23.00;26.90
3954;DHT22;1991;48.682;9.030;2023-03-01T15:04:21;21.90;27.10
3954;DHT22;1991;48.682;9.030;2023-03-01T15:06:51;20.40;28.60
3954;DHT22;1991;48.682;9.030;2023-03-01T15:09:17;20.30;29.20
3954;DHT22;1991;48.682;9.030;2023-03-01T15:11:44;19.30;29.30
3954;DHT22;1991;48.682;9.030;2023-03-01T15:14:42;18.40;30.90
3954;DHT22;1991;48.682;9.030;2023-03-01T15:17:35;18.00;31.70
3954;DHT22;1991;48.682;9.030;2023-03-01T15:20:05;18.60;31.20
3954;DHT22;1991;48.682;9.030;2023-03-01T15:22:31;18.70;30.90
3954;DHT22;1991;48.682;9.030;2023-03-01T15:24:57;18.70;30.90
3954;DHT22;1991;48.682;9.030;2023-03-01T15:27:25;18.40;31.60
3954;DHT22;1991;48.682;9.030;2023-03-01T15:30:00;18.50;31.60
3954;DHT22;1991;48.682;9.030;2023-03-01T15:34:57;19.60;30.20
3954;DHT22;1991;48.682;9.030;2023-03-01T15:37:58;19.70;30.00
3954;DHT22;1991;48.682;9.030;2023-03-01T15:40:27;19.50;30.00
3954;DHT22;1991;48.682;9.030;2023-03-01T15:43:04;19.50;30.20
3954;DHT22;1991;48.682;9.030;2023-03-01T15:45:33;19.30;30.20
3954;DHT22;1991;48.682;9.030;2023-03-01T15:48:05;18.70;30.90
3954;DHT22;1991;48.682;9.030;2023-03-01T15:50:40;18.00;31.50
3954;DHT22;1991;48.682;9.030;2023-03-01T15:53:12;16.80;33.00
3954;DHT22;1991;48.682;9.030;2023-03-01T15:55:39;15.90;34.10
3954;DHT22;1991;48.682;9.030;2023-03-01T15:58:17;14.70;35.80
3954;DHT22;1991;48.682;9.030;2023-03-01T16:00:44;13.70;37.90
3954;DHT22;1991;48.682;9.030;2023-03-01T16:03:11;13.40;38.70
3954;DHT22;1991;48.682;9.030;2023-03-01T16:05:38;13.00;39.10
3954;DHT22;1991;48.682;9.030;2023-03-01T16:08:06;12.40;39.90
3954;DHT22;1991;48.682;9.030;2023-03-01T16:10:33;11.90;41.60
3954;DHT22;1991;48.682;9.030;2023-03-01T16:12:59;11.70;42.00
3954;DHT22;1991;48.682;9.030;2023-03-01T16:15:28;11.30;42.50
3954;DHT22;1991;48.682;9.030;2023-03-01T16:17:54;10.80;43.70
3954;DHT22;1991;48.682;9.030;2023-03-01T16:20:21;10.40;44.70
3954;DHT22;1991;48.682;9.030;2023-03-01T16:22:46;9.90;45.90
3954;DHT22;1991;48.682;9.030;2023-03-01T16:25:15;9.70;46.20
3954;DHT22;1991;48.682;9.030;2023-03-01T16:27:46;9.30;47.10
3954;DHT22;1991;48.682;9.030;2023-03-01T16:30:12;9.10;47.60
3954;DHT22;1991;48.682;9.030;2023-03-01T16:32:43;8.60;48.90
3954;DHT22;1991;48.682;9.030;2023-03-01T16:35:10;8.40;49.60
3954;DHT22;1991;48.682;9.030;2023-03-01T16:37:37;8.20;49.90
3954;DHT22;1991;48.682;9.030;2023-03-01T16:40:11;7.90;51.00
3954;DHT22;1991;48.682;9.030;2023-03-01T16:42:40;7.70;51.60
3954;DHT22;1991;48.682;9.030;2023-03-01T16:45:07;7.60;51.60
3954;DHT22;1991;48.682;9.030;2023-03-01T16:47:34;7.40;51.50
3954;DHT22;1991;48.682;9.030;2023-03-01T16:50:00;7.30;51.80
3954;DHT22;1991;48.682;9.030;2023-03-01T16:52:25;7.10;52.50
3954;DHT22;1991;48.682;9.030;2023-03-01T16:54:51;6.90;53.30
3954;DHT22;1991;48.682;9.030;2023-03-01T16:57:17;6.60;53.40
3954;DHT22;1991;48.682;9.030;2023-03-01T16:59:42;6.50;54.50
3954;DHT22;1991;48.682;9.030;2023-03-01T17:02:11;6.20;55.40
3954;DHT22;1991;48.682;9.030;2023-03-01T17:04:39;6.00;56.20
3954;DHT22;1991;48.682;9.030;2023-03-01T17:07:05;5.80;56.60
3954;DHT22;1991;48.682;9.030;2023-03-01T17:09:34;5.70;57.10
3954;DHT22;1991;48.682;9.030;2023-03-01T17:12:00;5.60;57.60
3954;DHT22;1991;48.682;9.030;2023-03-01T17:14:25;5.50;58.30
3954;DHT22;1991;48.682;9.030;2023-03-01T17:16:51;5.40;59.30
3954;DHT22;1991;48.682;9.030;2023-03-01T17:19:18;5.30;59.30
3954;DHT22;1991;48.682;9.030;2023-03-01T17:21:44;5.20;59.30
3954;DHT22;1991;48.682;9.030;2023-03-01T17:24:11;5.00;60.10
3954;DHT22;1991;48.682;9.030;2023-03-01T17:26:38;4.90;60.60
3954;DHT22;1991;48.682;9.030;2023-03-01T17:29:04;4.80;61.00
3954;DHT22;1991;48.682;9.030;2023-03-01T17:31:31;4.70;61.10
3954;DHT22;1991;48.682;9.030;2023-03-01T17:33:56;4.60;61.50
3954;DHT22;1991;48.682;9.030;2023-03-01T17:36:22;4.60;62.40
3954;DHT22;1991;48.682;9.030;2023-03-01T17:38:48;4.50;62.90
3954;DHT22;1991;48.682;9.030;2023-03-01T17:41:14;4.40;63.40
3954;DHT22;1991;48.682;9.030;2023-03-01T17:43:43;4.30;64.60
3954;DHT22;1991;48.682;9.030;2023-03-01T17:46:08;4.30;64.00
3954;DHT22;1991;48.682;9.030;2023-03-01T17:48:34;4.10;65.10
3954;DHT22;1991;48.682;9.030;2023-03-01T17:51:00;4.10;65.40
3954;DHT22;1991;48.682;9.030;2023-03-01T17:53:29;4.00;65.70
3954;DHT22;1991;48.682;9.030;2023-03-01T17:56:00;4.00;65.60
3954;DHT22;1991;48.682;9.030;2023-03-01T17:58:26;4.00;66.00
3954;DHT22;1991;48.682;9.030;2023-03-01T18:00:51;3.90;66.10